createdAt,value
2023-02-04T00:00:24.740Z,0.32
2023-02-04T00:02:51.403Z,0.60
2023-02-04T00:05:18.486Z,0.30
2023-02-04T00:07:45.038Z,0.63
2023-02-04T00:10:11.623Z,0.30
2023-02-04T00:12:38.231Z,0.30
2023-02-04T00:15:05.837Z,0.30
2023-02-04T00:17:32.480Z,0.50
2023-02-04T00:19:59.152Z,0.98
2023-02-04T00:22:28.125Z,0.40
2023-02-04T00:24:54.729Z,0.40
2023-02-04T00:27:21.414Z,0.40
2023-02-04T00:29:48.033Z,0.55
2023-02-04T00:32:14.654Z,0.30
2023-02-04T00:34:41.534Z,0.32
2023-02-04T00:37:08.115Z,0.88
2023-02-04T00:39:34.739Z,0.77
2023-02-04T00:42:01.373Z,0.68
2023-02-04T00:44:27.924Z,0.65
2023-02-04T00:46:54.537Z,0.60
2023-02-04T00:49:21.081Z,0.38
2023-02-04T00:51:47.900Z,0.43
2023-02-04T00:54:15.906Z,0.40
2023-02-04T00:56:43.557Z,0.40
2023-02-04T00:59:10.764Z,0.40
2023-02-04T01:01:37.468Z,0.40
2023-02-04T01:04:04.284Z,0.63
2023-02-04T01:06:30.931Z,0.35
2023-02-04T01:08:57.645Z,0.22
2023-02-04T01:11:24.286Z,0.55
2023-02-04T01:13:51.033Z,0.40
2023-02-04T01:16:17.709Z,0.60
2023-02-04T01:18:44.473Z,0.40
2023-02-04T01:21:11.157Z,0.43
2023-02-04T01:23:38.085Z,0.47
2023-02-04T01:26:05.063Z,0.73
2023-02-04T01:28:31.726Z,0.40
2023-02-04T01:30:58.348Z,0.57
2023-02-04T01:33:24.986Z,1.05
2023-02-04T01:35:51.560Z,0.30
2023-02-04T01:38:18.135Z,0.40
2023-02-04T01:40:44.849Z,0.28
2023-02-04T01:43:12.281Z,1.00
2023-02-04T01:45:39.358Z,0.77
2023-02-04T01:48:07.471Z,0.52
2023-02-04T01:50:34.800Z,0.35
2023-02-04T01:53:01.726Z,0.50
2023-02-04T01:55:32.048Z,0.70
2023-02-04T01:57:59.065Z,0.57
2023-02-04T02:00:31.733Z,0.50
2023-02-04T02:02:59.767Z,0.60
2023-02-04T02:05:43.750Z,0.98
2023-02-04T02:08:11.190Z,0.77
2023-02-04T02:10:39.545Z,0.57
2023-02-04T02:13:07.022Z,0.90
2023-02-04T02:15:33.882Z,0.82
2023-02-04T02:18:00.552Z,0.60
2023-02-04T02:20:29.643Z,0.70
2023-02-04T02:23:33.062Z,0.57
2023-02-04T02:25:59.665Z,0.47
2023-02-04T02:28:26.300Z,0.63
2023-02-04T02:30:53.135Z,0.60
2023-02-04T02:33:21.066Z,0.55
2023-02-04T02:35:48.615Z,0.70
2023-02-04T02:38:16.621Z,0.85
2023-02-04T02:40:43.717Z,0.45
2023-02-04T02:43:15.643Z,0.70
2023-02-04T02:45:42.785Z,0.35
2023-02-04T02:48:10.430Z,0.75
2023-02-04T02:50:37.746Z,0.55
2023-02-04T02:53:05.726Z,0.30
2023-02-04T02:55:32.618Z,0.75
2023-02-04T02:57:59.210Z,0.50
2023-02-04T03:00:28.466Z,0.68
2023-02-04T03:03:04.845Z,0.65
2023-02-04T03:05:35.871Z,0.63
2023-02-04T03:08:03.781Z,0.20
2023-02-04T03:10:31.004Z,0.47
2023-02-04T03:12:59.462Z,0.55
2023-02-04T03:15:26.307Z,0.52
2023-02-04T03:17:56.413Z,0.40
2023-02-04T03:20:26.971Z,0.40
2023-02-04T03:22:54.165Z,0.35
2023-02-04T03:25:24.365Z,0.47
2023-02-04T03:27:58.736Z,0.30
2023-02-04T03:30:26.007Z,0.68
2023-02-04T03:32:53.462Z,0.30
2023-02-04T03:35:20.612Z,0.93
2023-02-04T03:37:47.213Z,0.68
2023-02-04T03:40:13.984Z,0.60
2023-02-04T03:42:40.548Z,0.80
2023-02-04T03:45:07.410Z,0.60
2023-02-04T03:47:34.008Z,0.65
2023-02-04T03:50:00.782Z,0.57
2023-02-04T03:52:27.340Z,0.40
2023-02-04T03:54:53.890Z,0.52
2023-02-04T03:57:20.862Z,0.60
2023-02-04T03:59:47.436Z,0.60
2023-02-04T04:02:14.081Z,0.40
2023-02-04T04:04:40.705Z,0.57
2023-02-04T04:07:07.372Z,1.00
2023-02-04T04:09:34.011Z,0.70
2023-02-04T04:12:00.908Z,0.52
2023-02-04T04:14:27.736Z,0.30
2023-02-04T04:16:54.349Z,0.52
2023-02-04T04:19:20.941Z,0.70
2023-02-04T04:21:47.465Z,0.60
2023-02-04T04:24:14.000Z,0.57
2023-02-04T04:26:40.543Z,1.27
2023-02-04T04:29:07.175Z,0.98
2023-02-04T04:31:34.102Z,0.50
2023-02-04T04:34:01.946Z,0.60
2023-02-04T04:36:28.496Z,0.77
2023-02-04T04:38:55.130Z,0.60
2023-02-04T04:41:21.842Z,0.88
2023-02-04T04:43:48.393Z,0.68
2023-02-04T04:46:14.984Z,0.75
2023-02-04T04:48:41.594Z,0.90
2023-02-04T04:51:08.203Z,1.10
2023-02-04T04:53:34.779Z,0.82
2023-02-04T04:56:01.322Z,1.00
2023-02-04T04:58:27.932Z,0.75
2023-02-04T05:00:54.543Z,1.05
2023-02-04T05:03:21.158Z,1.17
2023-02-04T05:05:47.699Z,0.85
2023-02-04T05:08:16.830Z,1.33
2023-02-04T05:10:43.932Z,0.85
2023-02-04T05:13:10.732Z,0.80
2023-02-04T05:15:37.355Z,1.02
2023-02-04T05:18:04.189Z,0.88
2023-02-04T05:20:32.964Z,1.08
2023-02-04T05:23:01.175Z,0.90
2023-02-04T05:25:28.841Z,1.13
2023-02-04T05:27:55.467Z,1.00
2023-02-04T05:30:22.857Z,1.10
2023-02-04T05:32:49.848Z,0.95
2023-02-04T05:35:16.514Z,0.82
2023-02-04T05:37:43.110Z,1.17
2023-02-04T05:40:10.163Z,0.50
2023-02-04T05:42:36.773Z,1.20
2023-02-04T05:45:03.746Z,0.93
2023-02-04T05:47:30.282Z,1.10
2023-02-04T05:49:56.958Z,1.10
2023-02-04T05:52:23.533Z,1.40
2023-02-04T05:54:50.085Z,0.80
2023-02-04T05:57:16.710Z,1.10
2023-02-04T05:59:43.314Z,1.73
2023-02-04T06:02:09.933Z,0.57
2023-02-04T06:04:36.572Z,1.20
2023-02-04T06:07:03.446Z,1.13
2023-02-04T06:09:29.986Z,1.20
2023-02-04T06:11:57.446Z,0.57
2023-02-04T06:14:24.033Z,1.38
2023-02-04T06:16:50.639Z,1.15
2023-02-04T06:19:17.256Z,0.75
2023-02-04T06:21:43.834Z,1.10
2023-02-04T06:24:10.464Z,1.25
2023-02-04T06:26:37.227Z,1.30
2023-02-04T06:29:03.848Z,1.48
2023-02-04T06:31:30.757Z,1.10
2023-02-04T06:33:57.347Z,2.15
2023-02-04T06:36:23.993Z,1.77
2023-02-04T06:38:50.563Z,1.30
2023-02-04T06:41:17.169Z,0.63
2023-02-04T06:43:43.853Z,0.65
2023-02-04T06:46:10.520Z,0.77
2023-02-04T06:48:37.150Z,1.20
2023-02-04T06:51:05.048Z,0.73
2023-02-04T06:53:31.621Z,1.25
2023-02-04T06:55:58.221Z,1.00
2023-02-04T06:58:24.837Z,0.65
2023-02-04T07:00:51.406Z,0.75
2023-02-04T07:03:17.927Z,0.65
2023-02-04T07:05:44.518Z,0.68
2023-02-04T07:08:11.144Z,0.73
2023-02-04T07:10:37.717Z,1.33
2023-02-04T07:13:04.263Z,1.23
2023-02-04T07:15:31.594Z,1.05
2023-02-04T07:17:58.213Z,1.38
2023-02-04T07:20:24.768Z,0.60
2023-02-04T07:22:51.407Z,0.60
2023-02-04T07:25:18.089Z,0.88
2023-02-04T07:27:44.988Z,0.77
2023-02-04T07:30:12.336Z,0.68
2023-02-04T07:32:38.894Z,0.88
2023-02-04T07:35:06.191Z,0.85
2023-02-04T07:37:32.935Z,0.85
2023-02-04T07:39:59.853Z,1.17
2023-02-04T07:42:26.496Z,1.00
2023-02-04T07:44:53.136Z,1.08
2023-02-04T07:47:19.729Z,1.17
2023-02-04T07:49:46.273Z,0.68
2023-02-04T07:52:14.409Z,1.00
2023-02-04T07:54:40.980Z,1.40
2023-02-04T07:57:07.602Z,1.20
2023-02-04T07:59:34.233Z,0.93
2023-02-04T08:02:01.858Z,1.55
2023-02-04T08:04:28.513Z,0.98
2023-02-04T08:06:55.123Z,0.90
2023-02-04T08:09:21.737Z,0.95
2023-02-04T08:11:48.280Z,1.55
2023-02-04T08:14:14.894Z,0.93
2023-02-04T08:16:41.559Z,0.63
2023-02-04T08:19:08.092Z,0.63
2023-02-04T08:21:34.694Z,1.25
2023-02-04T08:24:01.393Z,1.23
2023-02-04T08:26:28.187Z,1.48
2023-02-04T08:28:54.731Z,1.33
2023-02-04T08:31:21.397Z,1.17
2023-02-04T08:33:48.038Z,1.45
2023-02-04T08:36:14.566Z,1.20
2023-02-04T08:38:41.376Z,1.33
2023-02-04T08:41:08.043Z,1.27
2023-02-04T08:43:34.637Z,1.23
2023-02-04T08:46:01.350Z,1.33
2023-02-04T08:48:28.109Z,2.47
2023-02-04T08:50:54.720Z,1.02
2023-02-04T08:53:21.361Z,0.90
2023-02-04T08:55:47.908Z,1.00
2023-02-04T08:58:14.459Z,1.30
2023-02-04T09:00:41.081Z,0.85
2023-02-04T09:03:07.779Z,0.88
2023-02-04T09:05:34.411Z,1.27
2023-02-04T09:08:01.243Z,0.63
2023-02-04T09:10:27.845Z,0.50
2023-02-04T09:12:56.083Z,0.80
2023-02-04T09:15:27.025Z,0.90
2023-02-04T09:17:55.571Z,1.20
2023-02-04T09:20:22.155Z,1.15
2023-02-04T09:22:50.193Z,0.80
2023-02-04T09:25:16.874Z,0.57
2023-02-04T09:27:43.449Z,0.70
2023-02-04T09:30:10.504Z,1.45
2023-02-04T09:32:37.086Z,1.30
2023-02-04T09:35:03.946Z,1.33
2023-02-04T09:37:30.555Z,0.93
2023-02-04T09:39:57.091Z,1.10
2023-02-04T09:42:24.964Z,1.10
2023-02-04T09:44:51.786Z,1.55
2023-02-04T09:47:22.026Z,1.42
2023-02-04T09:49:48.611Z,1.20
2023-02-04T09:52:18.047Z,1.05
2023-02-04T09:54:45.016Z,1.10
2023-02-04T09:57:18.943Z,1.02
2023-02-04T09:59:45.883Z,0.73
2023-02-04T10:02:18.219Z,0.95
2023-02-04T10:04:44.964Z,1.05
2023-02-04T10:07:13.264Z,0.98
2023-02-04T10:09:40.942Z,0.85
2023-02-04T10:12:08.083Z,1.13
2023-02-04T10:14:34.643Z,1.20
2023-02-04T10:17:01.585Z,1.13
2023-02-04T10:19:30.832Z,1.55
2023-02-04T10:21:58.330Z,0.80
2023-02-04T10:24:26.466Z,0.98
2023-02-04T10:26:53.732Z,1.10
2023-02-04T10:29:23.876Z,0.73
2023-02-04T10:31:51.319Z,0.85
2023-02-04T10:34:33.880Z,0.57
2023-02-04T10:37:11.262Z,0.65
2023-02-04T10:39:42.649Z,0.90
2023-02-04T10:42:29.926Z,1.10
2023-02-04T10:44:57.041Z,0.70
2023-02-04T10:47:30.899Z,0.80
2023-02-04T10:50:08.734Z,0.82
2023-02-04T10:52:39.083Z,1.10
2023-02-04T10:55:10.835Z,0.80
2023-02-04T10:57:39.632Z,0.80
2023-02-04T11:00:22.228Z,0.68
2023-02-04T11:03:07.224Z,0.70
2023-02-04T11:05:36.483Z,1.05
2023-02-04T11:08:18.262Z,0.75
2023-02-04T11:10:45.084Z,0.50
2023-02-04T11:13:23.217Z,1.17
2023-02-04T11:15:55.331Z,1.50
2023-02-04T11:18:21.944Z,1.13
2023-02-04T11:20:50.503Z,0.50
2023-02-04T11:23:30.731Z,0.85
2023-02-04T11:26:07.854Z,0.98
2023-02-04T11:28:50.383Z,1.10
2023-02-04T11:31:20.069Z,0.85
2023-02-04T11:33:47.823Z,0.60
2023-02-04T11:36:15.624Z,0.63
2023-02-04T11:38:50.105Z,0.88
2023-02-04T11:41:26.756Z,1.33
2023-02-04T11:43:54.831Z,1.38
2023-02-04T11:46:22.871Z,1.20
2023-02-04T11:48:54.835Z,0.90
2023-02-04T11:51:28.146Z,0.70
2023-02-04T11:53:54.738Z,1.05
2023-02-04T11:56:23.408Z,0.77
2023-02-04T11:58:50.715Z,0.77
2023-02-04T12:01:29.676Z,0.73
2023-02-04T12:03:58.314Z,0.85
2023-02-04T12:06:27.353Z,0.98
2023-02-04T12:09:08.062Z,0.90
2023-02-04T12:11:35.444Z,0.93
2023-02-04T12:14:10.038Z,0.85
2023-02-04T12:16:46.356Z,0.60
2023-02-04T12:19:13.245Z,0.80
2023-02-04T12:21:40.550Z,0.68
2023-02-04T12:24:07.395Z,1.00
2023-02-04T12:26:34.016Z,0.80
2023-02-04T12:29:03.062Z,0.70
2023-02-04T12:31:30.317Z,0.95
2023-02-04T12:33:57.630Z,1.02
2023-02-04T12:36:24.764Z,0.90
2023-02-04T12:38:51.346Z,1.13
2023-02-04T12:41:19.836Z,0.82
2023-02-04T12:43:46.867Z,0.82
2023-02-04T12:46:13.547Z,1.15
2023-02-04T12:48:41.055Z,1.05
2023-02-04T12:51:08.098Z,0.88
2023-02-04T12:53:34.728Z,1.08
2023-02-04T12:56:01.402Z,1.10
2023-02-04T12:58:27.971Z,1.05
2023-02-04T13:00:54.707Z,1.23
2023-02-04T13:03:22.917Z,0.70
2023-02-04T13:05:49.507Z,0.70
2023-02-04T13:08:16.093Z,0.50
2023-02-04T13:10:42.940Z,0.60
2023-02-04T13:13:09.488Z,0.85
2023-02-04T13:15:36.112Z,0.52
2023-02-04T13:18:02.749Z,0.70
2023-02-04T13:20:29.286Z,0.80
2023-02-04T13:22:55.826Z,0.60
2023-02-04T13:25:22.469Z,0.75
2023-02-04T13:27:49.298Z,1.05
2023-02-04T13:30:16.087Z,1.00
2023-02-04T13:32:43.408Z,0.65
2023-02-04T13:35:10.062Z,0.80
2023-02-04T13:37:38.087Z,0.85
2023-02-04T13:40:06.368Z,0.95
2023-02-04T13:42:33.265Z,0.70
2023-02-04T13:45:00.129Z,0.77
2023-02-04T13:47:26.754Z,1.10
2023-02-04T13:49:53.589Z,0.75
2023-02-04T13:52:21.718Z,0.95
2023-02-04T13:54:48.320Z,0.57
2023-02-04T13:57:14.990Z,0.80
2023-02-04T13:59:42.870Z,0.90
2023-02-04T14:02:09.564Z,0.73
2023-02-04T14:04:37.014Z,0.80
2023-02-04T14:07:03.695Z,1.10
2023-02-04T14:09:30.241Z,0.93
2023-02-04T14:11:56.889Z,0.75
2023-02-04T14:14:23.531Z,0.80
2023-02-04T14:16:50.181Z,0.77
2023-02-04T14:19:16.959Z,0.80
2023-02-04T14:21:43.607Z,0.82
2023-02-04T14:24:10.214Z,0.70
2023-02-04T14:26:36.794Z,0.80
2023-02-04T14:29:04.512Z,0.90
2023-02-04T14:31:31.172Z,1.10
2023-02-04T14:33:59.134Z,0.57
2023-02-04T14:36:25.684Z,0.52
2023-02-04T14:38:52.267Z,0.77
2023-02-04T14:41:21.120Z,0.50
2023-02-04T14:43:48.088Z,0.68
2023-02-04T14:46:14.757Z,0.52
2023-02-04T14:48:41.770Z,0.77
2023-02-04T14:51:08.328Z,0.70
2023-02-04T14:53:34.924Z,0.38
2023-02-04T14:56:01.467Z,0.70
2023-02-04T14:58:29.413Z,0.80
2023-02-04T15:00:56.011Z,0.80
2023-02-04T15:03:22.887Z,0.75
2023-02-04T15:05:49.474Z,0.88
2023-02-04T15:08:16.158Z,0.90
2023-02-04T15:10:42.963Z,1.17
2023-02-04T15:13:09.982Z,1.08
2023-02-04T15:15:36.614Z,1.27
2023-02-04T15:18:03.332Z,1.85
2023-02-04T15:20:30.052Z,1.05
2023-02-04T15:22:57.474Z,0.80
2023-02-04T15:25:25.102Z,1.25
2023-02-04T15:27:51.741Z,1.13
2023-02-04T15:30:18.419Z,1.17
2023-02-04T15:32:46.025Z,1.05
2023-02-04T15:35:13.639Z,1.65
2023-02-04T15:37:40.238Z,1.58
2023-02-04T15:40:08.507Z,1.52
2023-02-04T15:42:35.668Z,1.20
2023-02-04T15:45:02.699Z,1.88
2023-02-04T15:47:29.242Z,2.10
2023-02-04T15:49:55.825Z,2.53
2023-02-04T15:52:25.132Z,3.72
2023-02-04T15:54:52.552Z,3.85
2023-02-04T15:57:19.389Z,3.72
2023-02-04T15:59:46.119Z,4.07
2023-02-04T16:02:13.173Z,3.47
2023-02-04T16:04:41.477Z,3.50
2023-02-04T16:07:08.374Z,2.92
2023-02-04T16:09:36.558Z,2.83
2023-02-04T16:12:03.930Z,2.80
2023-02-04T16:14:30.673Z,2.65
2023-02-04T16:16:57.564Z,2.65
2023-02-04T16:19:24.236Z,1.38
2023-02-04T16:21:50.821Z,1.60
2023-02-04T16:24:18.470Z,1.55
2023-02-04T16:26:45.582Z,1.45
2023-02-04T16:29:14.548Z,1.70
2023-02-04T16:31:41.196Z,1.48
2023-02-04T16:34:08.046Z,1.65
2023-02-04T16:36:36.178Z,1.63
2023-02-04T16:39:02.861Z,1.70
2023-02-04T16:41:29.760Z,1.55
2023-02-04T16:43:56.590Z,2.80
2023-02-04T16:46:23.165Z,3.00
2023-02-04T16:48:49.775Z,2.72
2023-02-04T16:51:17.815Z,2.85
2023-02-04T16:53:44.471Z,2.92
2023-02-04T16:56:11.029Z,2.42
2023-02-04T16:58:39.973Z,1.83
2023-02-04T17:01:07.269Z,1.63
2023-02-04T17:03:34.371Z,1.27
2023-02-04T17:06:01.733Z,1.50
2023-02-04T17:08:29.390Z,1.55
2023-02-04T17:11:14.679Z,1.25
2023-02-04T17:13:41.322Z,1.08
2023-02-04T17:16:07.988Z,0.95
2023-02-04T17:18:34.745Z,1.50
2023-02-04T17:21:02.453Z,1.20
2023-02-04T17:23:29.060Z,1.17
2023-02-04T17:25:55.867Z,1.30
2023-02-04T17:28:24.381Z,1.23
2023-02-04T17:30:51.052Z,0.88
2023-02-04T17:33:17.742Z,1.60
2023-02-04T17:35:44.834Z,1.58
2023-02-04T17:38:11.516Z,1.20
2023-02-04T17:40:38.106Z,1.33
2023-02-04T17:43:04.901Z,1.20
2023-02-04T17:45:31.925Z,0.80
2023-02-04T17:47:58.903Z,1.10
2023-02-04T17:50:25.575Z,1.33
2023-02-04T17:52:52.524Z,1.20
2023-02-04T17:55:22.376Z,0.98
2023-02-04T17:57:49.576Z,1.25
2023-02-04T18:00:18.606Z,1.58
2023-02-04T18:02:47.866Z,1.88
2023-02-04T18:05:20.914Z,2.00
2023-02-04T18:07:56.785Z,2.58
2023-02-04T18:10:33.027Z,1.40
2023-02-04T18:13:04.689Z,1.10
2023-02-04T18:15:32.762Z,1.00
2023-02-04T18:18:22.470Z,1.50
2023-02-04T18:21:02.273Z,1.48
2023-02-04T18:23:32.470Z,1.77
2023-02-04T18:26:13.140Z,1.38
2023-02-04T18:28:43.289Z,1.63
2023-02-04T18:31:34.828Z,1.30
2023-02-04T18:34:12.925Z,1.60
2023-02-04T18:36:39.514Z,1.20
2023-02-04T18:39:28.955Z,1.00
2023-02-04T18:41:56.130Z,1.58
2023-02-04T18:44:36.015Z,2.28
2023-02-04T18:47:09.875Z,1.50
2023-02-04T18:49:41.095Z,1.30
2023-02-04T18:52:21.399Z,1.58
2023-02-04T18:54:52.757Z,1.25
2023-02-04T18:57:33.872Z,1.40
2023-02-04T19:00:23.320Z,1.45
2023-02-04T19:02:54.605Z,1.30
2023-02-04T19:05:33.515Z,1.50
2023-02-04T19:08:05.985Z,1.80
2023-02-04T19:10:37.082Z,1.88
2023-02-04T19:13:17.281Z,1.65
2023-02-04T19:15:44.070Z,1.75
2023-02-04T19:18:37.629Z,1.88
2023-02-04T19:21:26.564Z,1.75
2023-02-04T19:24:01.446Z,1.77
2023-02-04T19:26:50.604Z,2.15
2023-02-04T19:29:24.746Z,1.40
2023-02-04T19:31:59.009Z,1.45
2023-02-04T19:34:28.549Z,1.30
2023-02-04T19:36:55.519Z,1.02
2023-02-04T19:39:41.493Z,1.30
2023-02-04T19:42:23.337Z,1.83
2023-02-04T19:44:51.675Z,1.77
2023-02-04T19:47:28.682Z,1.55
2023-02-04T19:50:13.505Z,1.52
2023-02-04T19:52:46.561Z,1.70
2023-02-04T19:55:22.520Z,2.05
2023-02-04T19:57:51.385Z,2.00
2023-02-04T20:00:33.442Z,2.40
2023-02-04T20:03:00.907Z,1.60
2023-02-04T20:05:32.175Z,2.10
2023-02-04T20:08:39.461Z,2.72
2023-02-04T20:11:30.266Z,1.95
2023-02-04T20:14:18.542Z,1.60
2023-02-04T20:16:51.245Z,1.63
2023-02-04T20:19:32.694Z,1.58
2023-02-04T20:22:17.541Z,1.67
2023-02-04T20:24:49.244Z,1.40
2023-02-04T20:27:28.648Z,2.10
2023-02-04T20:30:26.648Z,1.77
2023-02-04T20:33:17.726Z,1.50
2023-02-04T20:35:44.258Z,1.40
2023-02-04T20:38:16.439Z,1.65
2023-02-04T20:40:46.537Z,1.98
2023-02-04T20:43:24.083Z,2.25
2023-02-04T20:45:53.450Z,1.95
2023-02-04T20:48:21.218Z,2.40
2023-02-04T20:50:55.545Z,1.90
2023-02-04T20:53:35.959Z,2.20
2023-02-04T20:56:26.810Z,2.30
2023-02-04T20:59:11.564Z,1.67
2023-02-04T21:01:40.480Z,1.90
2023-02-04T21:04:36.609Z,1.75
2023-02-04T21:07:20.053Z,1.73
2023-02-04T21:09:48.036Z,2.03
2023-02-04T21:12:15.273Z,1.75
2023-02-04T21:14:41.900Z,1.88
2023-02-04T21:17:08.618Z,1.95
2023-02-04T21:19:35.299Z,1.70
2023-02-04T21:22:02.317Z,1.88
2023-02-04T21:24:31.740Z,2.22
2023-02-04T21:26:58.712Z,1.73
2023-02-04T21:29:26.041Z,2.20
2023-02-04T21:31:54.891Z,1.75
2023-02-04T21:34:21.651Z,0.98
2023-02-04T21:36:48.516Z,1.45
2023-02-04T21:39:15.669Z,2.00
2023-02-04T21:41:42.326Z,1.90
2023-02-04T21:44:08.982Z,1.58
2023-02-04T21:46:35.833Z,1.55
2023-02-04T21:49:05.560Z,1.50
2023-02-04T21:51:32.322Z,1.30
2023-02-04T21:53:59.974Z,1.67
2023-02-04T21:56:26.821Z,1.60
2023-02-04T21:58:54.121Z,1.90
2023-02-04T22:01:20.776Z,1.45
2023-02-04T22:03:47.382Z,0.85
2023-02-04T22:06:14.215Z,1.17
2023-02-04T22:08:40.779Z,1.60
2023-02-04T22:11:07.321Z,1.25
2023-02-04T22:13:52.403Z,1.58
2023-02-04T22:16:19.065Z,2.08
2023-02-04T22:18:45.642Z,1.27
2023-02-04T22:21:12.504Z,1.33
2023-02-04T22:23:39.623Z,1.25
2023-02-04T22:26:06.203Z,1.42
2023-02-04T22:28:32.856Z,1.00
2023-02-04T22:30:59.590Z,1.10
2023-02-04T22:33:26.205Z,1.80
2023-02-04T22:35:52.790Z,0.98
2023-02-04T22:38:20.863Z,0.77
2023-02-04T22:40:48.461Z,1.00
2023-02-04T22:43:15.683Z,1.00
2023-02-04T22:45:42.302Z,1.30
2023-02-04T22:48:08.875Z,0.85
2023-02-04T22:50:35.469Z,1.05
2023-02-04T22:53:02.182Z,1.05
2023-02-04T22:55:28.719Z,0.88
2023-02-04T22:57:55.285Z,0.70
2023-02-04T23:00:21.826Z,1.00
2023-02-04T23:02:49.842Z,0.82
2023-02-04T23:05:16.514Z,1.10
2023-02-04T23:07:43.145Z,1.33
2023-02-04T23:10:10.068Z,1.20
2023-02-04T23:12:36.627Z,0.82
2023-02-04T23:15:03.457Z,1.38
2023-02-04T23:17:30.131Z,1.27
2023-02-04T23:19:56.684Z,1.10
2023-02-04T23:22:23.333Z,1.02
2023-02-04T23:24:50.053Z,1.20
2023-02-04T23:27:16.946Z,0.60
2023-02-04T23:29:43.528Z,1.10
2023-02-04T23:32:10.367Z,1.75
2023-02-04T23:34:37.207Z,1.10
2023-02-04T23:37:04.008Z,1.48
2023-02-04T23:39:30.994Z,0.98
2023-02-04T23:41:57.935Z,1.00
2023-02-04T23:44:24.804Z,0.88
2023-02-04T23:46:51.523Z,0.90
2023-02-04T23:49:18.346Z,0.90
2023-02-04T23:51:45.246Z,1.10
2023-02-04T23:54:12.151Z,1.52
2023-02-04T23:56:38.894Z,0.98
2023-02-04T23:59:06.448Z,0.88
